createdAt,value
2019-02-04T00:01:33.750Z,7.62
2019-02-04T00:03:37.871Z,8.38
2019-02-04T00:05:42.071Z,8.13
2019-02-04T00:07:46.189Z,7.55
2019-02-04T00:09:50.413Z,9.53
2019-02-04T00:11:54.616Z,9.08
2019-02-04T00:13:58.828Z,7.60
2019-02-04T00:16:03.344Z,8.65
2019-02-04T00:18:08.453Z,9.13
2019-02-04T00:20:12.536Z,8.20
2019-02-04T00:22:16.706Z,8.05
2019-02-04T00:24:20.816Z,7.70
2019-02-04T00:26:24.920Z,6.90
2019-02-04T00:28:29.036Z,8.65
2019-02-04T00:30:34.503Z,7.85
2019-02-04T00:32:38.678Z,7.05
2019-02-04T00:34:42.895Z,8.10
2019-02-04T00:36:46.738Z,8.40
2019-02-04T00:38:50.917Z,7.42
2019-02-04T00:40:55.131Z,8.58
2019-02-04T00:42:58.989Z,7.75
2019-02-04T00:45:02.800Z,7.30
2019-02-04T00:47:10.629Z,7.75
2019-02-04T00:49:15.144Z,10.00
2019-02-04T00:51:19.368Z,9.30
2019-02-04T00:53:23.477Z,8.75
2019-02-04T00:55:27.692Z,11.05
2019-02-04T00:57:31.531Z,10.63
2019-02-04T00:59:35.917Z,8.78
2019-02-04T01:01:40.130Z,8.38
2019-02-04T01:03:43.947Z,8.88
2019-02-04T01:05:48.238Z,8.75
2019-02-04T01:07:52.450Z,8.30
2019-02-04T01:09:56.878Z,6.58
2019-02-04T01:12:01.088Z,7.78
2019-02-04T01:14:05.402Z,7.45
2019-02-04T01:16:09.514Z,7.45
2019-02-04T01:18:13.610Z,7.35
2019-02-04T01:20:23.972Z,8.50
2019-02-04T01:22:28.534Z,8.18
2019-02-04T01:24:32.317Z,8.03
2019-02-04T01:26:36.520Z,9.23
2019-02-04T01:28:42.167Z,9.35
2019-02-04T01:30:49.344Z,7.83
2019-02-04T01:32:53.862Z,8.53
2019-02-04T01:34:57.974Z,8.58
2019-02-04T01:37:04.228Z,8.03
2019-02-04T01:39:09.504Z,6.58
2019-02-04T01:41:13.680Z,7.25
2019-02-04T01:43:17.898Z,9.15
2019-02-04T01:45:22.932Z,8.63
2019-02-04T01:47:27.046Z,7.85
2019-02-04T01:49:31.162Z,7.92
2019-02-04T01:51:35.072Z,8.10
2019-02-04T01:53:40.661Z,7.42
2019-02-04T01:55:44.512Z,8.83
2019-02-04T01:57:51.063Z,7.35
2019-02-04T01:59:54.894Z,7.55
2019-02-04T02:01:59.296Z,7.92
2019-02-04T02:04:03.316Z,7.95
2019-02-04T02:06:07.507Z,7.20
2019-02-04T02:08:11.717Z,7.80
2019-02-04T02:10:19.208Z,8.75
2019-02-04T02:12:23.417Z,8.15
2019-02-04T02:14:27.282Z,9.00
2019-02-04T02:16:31.440Z,8.45
2019-02-04T02:18:35.264Z,7.03
2019-02-04T02:20:41.400Z,9.85
2019-02-04T02:22:45.501Z,8.58
2019-02-04T02:24:49.630Z,10.70
2019-02-04T02:26:53.829Z,8.05
2019-02-04T02:28:57.942Z,10.08
2019-02-04T02:31:02.053Z,9.30
2019-02-04T02:33:06.362Z,7.45
2019-02-04T02:35:12.106Z,9.20
2019-02-04T02:37:15.928Z,9.48
2019-02-04T02:39:20.748Z,8.70
2019-02-04T02:41:26.798Z,9.03
2019-02-04T02:43:30.921Z,9.15
2019-02-04T02:45:34.894Z,9.20
2019-02-04T02:47:39.020Z,8.93
2019-02-04T02:49:42.846Z,9.45
2019-02-04T02:51:47.353Z,8.10
2019-02-04T02:53:51.452Z,9.08
2019-02-04T02:55:55.578Z,8.90
2019-02-04T02:57:59.447Z,8.93
2019-02-04T03:00:05.337Z,9.48
2019-02-04T03:02:09.857Z,8.95
2019-02-04T03:04:16.399Z,9.53
2019-02-04T03:06:20.515Z,9.63
2019-02-04T03:08:24.630Z,9.55
2019-02-04T03:10:30.878Z,10.08
2019-02-04T03:12:35.002Z,10.05
2019-02-04T03:14:39.532Z,10.25
2019-02-04T03:16:43.814Z,9.35
2019-02-04T03:18:49.283Z,9.95
2019-02-04T03:20:53.139Z,8.53
2019-02-04T03:22:57.409Z,10.20
2019-02-04T03:25:01.725Z,12.18
2019-02-04T03:27:05.922Z,11.55
2019-02-04T03:29:10.046Z,11.30
2019-02-04T03:31:14.241Z,9.73
2019-02-04T03:33:18.082Z,9.83
2019-02-04T03:35:22.370Z,9.03
2019-02-04T03:37:26.200Z,9.60
2019-02-04T03:39:30.396Z,10.10
2019-02-04T03:41:34.388Z,8.63
2019-02-04T03:43:38.600Z,10.03
2019-02-04T03:45:42.807Z,10.35
2019-02-04T03:47:46.931Z,9.35
2019-02-04T03:49:50.766Z,12.25
2019-02-04T03:51:54.941Z,9.55
2019-02-04T03:53:59.052Z,10.98
2019-02-04T03:56:03.061Z,10.43
2019-02-04T03:58:07.782Z,8.40
2019-02-04T04:00:14.958Z,9.23
2019-02-04T04:02:19.085Z,9.18
2019-02-04T04:04:23.283Z,9.68
2019-02-04T04:06:27.404Z,11.12
2019-02-04T04:08:31.536Z,14.87
2019-02-04T04:10:35.712Z,11.18
2019-02-04T04:12:39.885Z,10.68
2019-02-04T04:14:44.047Z,10.15
2019-02-04T04:16:47.889Z,9.58
2019-02-04T04:18:53.453Z,8.13
2019-02-04T04:20:57.721Z,8.53
2019-02-04T04:23:01.830Z,7.85
2019-02-04T04:25:08.865Z,8.00
2019-02-04T04:27:13.007Z,16.12
2019-02-04T04:29:17.134Z,12.73
2019-02-04T04:31:21.335Z,10.88
2019-02-04T04:33:25.534Z,9.58
2019-02-04T04:35:29.441Z,8.45
2019-02-04T04:37:33.685Z,11.25
2019-02-04T04:39:37.881Z,9.98
2019-02-04T04:41:42.183Z,9.30
2019-02-04T04:43:46.395Z,9.68
2019-02-04T04:45:51.777Z,11.97
2019-02-04T04:47:56.046Z,11.90
2019-02-04T04:50:00.262Z,10.88
2019-02-04T04:52:04.573Z,10.98
2019-02-04T04:54:08.414Z,12.03
2019-02-04T04:56:12.615Z,10.75
2019-02-04T04:58:16.698Z,10.50
2019-02-04T05:00:26.546Z,10.18
2019-02-04T05:02:30.777Z,10.10
2019-02-04T05:04:35.285Z,11.12
2019-02-04T05:06:39.409Z,11.10
2019-02-04T05:08:43.597Z,12.85
2019-02-04T05:10:49.718Z,12.35
2019-02-04T05:12:53.598Z,12.40
2019-02-04T05:14:58.081Z,13.15
2019-02-04T05:17:01.893Z,14.00
2019-02-04T05:19:05.717Z,13.35
2019-02-04T05:21:09.604Z,19.42
2019-02-04T05:23:13.811Z,16.67
2019-02-04T05:25:18.321Z,15.93
2019-02-04T05:27:22.539Z,12.85
2019-02-04T05:29:26.657Z,12.60
2019-02-04T05:31:30.857Z,11.28
2019-02-04T05:33:35.072Z,11.08
2019-02-04T05:35:39.185Z,11.18
2019-02-04T05:37:43.088Z,12.18
2019-02-04T05:39:47.306Z,11.43
2019-02-04T05:41:51.429Z,10.80
2019-02-04T05:43:55.633Z,9.78
2019-02-04T05:45:59.841Z,11.75
2019-02-04T05:48:04.063Z,11.65
2019-02-04T05:50:11.049Z,15.85
2019-02-04T05:52:15.242Z,13.20
2019-02-04T05:54:19.063Z,12.50
2019-02-04T05:56:23.080Z,12.35
2019-02-04T05:58:27.099Z,14.03
2019-02-04T06:00:35.735Z,14.93
2019-02-04T06:02:39.569Z,12.70
2019-02-04T06:04:43.791Z,15.55
2019-02-04T06:06:47.907Z,13.65
2019-02-04T06:08:52.123Z,14.38
2019-02-04T06:10:56.029Z,16.40
2019-02-04T06:13:00.233Z,13.28
2019-02-04T06:15:06.829Z,13.00
2019-02-04T06:17:10.684Z,10.88
2019-02-04T06:19:14.923Z,8.70
2019-02-04T06:21:19.149Z,10.72
2019-02-04T06:23:23.239Z,12.55
2019-02-04T06:25:27.358Z,11.70
2019-02-04T06:27:31.583Z,11.25
2019-02-04T06:29:35.777Z,12.60
2019-02-04T06:31:40.193Z,13.93
2019-02-04T06:33:44.414Z,13.35
2019-02-04T06:35:48.616Z,12.20
2019-02-04T06:37:52.443Z,11.20
2019-02-04T06:39:56.651Z,11.95
2019-02-04T06:42:00.483Z,11.65
2019-02-04T06:44:04.661Z,11.45
2019-02-04T06:46:08.863Z,12.70
2019-02-04T06:48:12.975Z,13.65
2019-02-04T06:50:19.796Z,12.65
2019-02-04T06:52:23.952Z,11.03
2019-02-04T06:54:28.075Z,11.05
2019-02-04T06:56:32.280Z,10.63
2019-02-04T06:58:36.394Z,11.97
2019-02-04T07:00:40.207Z,10.85
2019-02-04T07:02:44.622Z,13.22
2019-02-04T07:04:48.827Z,9.95
2019-02-04T07:06:52.938Z,11.08
2019-02-04T07:08:57.172Z,11.03
2019-02-04T07:11:00.993Z,12.20
2019-02-04T07:13:05.167Z,11.15
2019-02-04T07:15:10.933Z,12.07
2019-02-04T07:17:15.039Z,11.68
2019-02-04T07:19:24.371Z,11.33
2019-02-04T07:21:25.122Z,10.10
2019-02-04T07:23:29.293Z,9.85
2019-02-04T07:25:33.500Z,9.53
2019-02-04T07:27:37.337Z,9.78
2019-02-04T07:29:43.162Z,10.45
2019-02-04T07:31:47.289Z,12.15
2019-02-04T07:33:51.503Z,14.13
2019-02-04T07:35:55.816Z,11.78
2019-02-04T07:37:59.913Z,9.98
2019-02-04T07:40:06.065Z,11.55
2019-02-04T07:42:10.290Z,12.58
2019-02-04T07:44:14.182Z,12.00
2019-02-04T07:46:18.322Z,11.70
2019-02-04T07:48:22.526Z,11.95
2019-02-04T07:50:26.662Z,14.68
2019-02-04T07:52:30.837Z,16.42
2019-02-04T07:54:34.670Z,16.65
2019-02-04T07:56:38.845Z,15.08
2019-02-04T07:58:43.070Z,11.60
2019-02-04T08:00:47.272Z,13.90
2019-02-04T08:02:52.016Z,13.45
2019-02-04T08:04:55.860Z,12.65
2019-02-04T08:06:59.695Z,14.03
2019-02-04T08:09:05.362Z,11.28
2019-02-04T08:11:09.566Z,13.62
2019-02-04T08:13:13.678Z,14.33
2019-02-04T08:15:34.793Z,14.23
2019-02-04T08:17:38.637Z,21.73
2019-02-04T08:19:47.030Z,20.62
2019-02-04T08:21:48.368Z,17.20
2019-02-04T08:23:52.762Z,12.80
2019-02-04T08:25:56.886Z,12.30
2019-02-04T08:28:01.103Z,11.55
2019-02-04T08:30:08.418Z,11.50
2019-02-04T08:32:12.486Z,9.03
2019-02-04T08:34:16.688Z,13.32
2019-02-04T08:36:20.808Z,11.85
2019-02-04T08:38:24.920Z,11.45
2019-02-04T08:40:29.440Z,10.55
2019-02-04T08:42:35.456Z,11.45
2019-02-04T08:44:39.387Z,12.80
2019-02-04T08:46:43.602Z,10.75
2019-02-04T08:48:47.720Z,14.65
2019-02-04T08:50:51.930Z,15.23
2019-02-04T08:52:56.447Z,13.60
2019-02-04T08:55:00.570Z,16.32
2019-02-04T08:57:04.540Z,16.60
2019-02-04T08:59:08.692Z,17.37
2019-02-04T09:01:12.791Z,19.95
2019-02-04T09:03:17.219Z,19.65
2019-02-04T09:05:22.644Z,18.77
2019-02-04T09:07:26.771Z,15.35
2019-02-04T09:09:30.978Z,16.87
2019-02-04T09:11:34.817Z,16.45
2019-02-04T09:13:39.084Z,14.15
2019-02-04T09:15:43.298Z,13.30
2019-02-04T09:17:47.435Z,14.78
2019-02-04T09:19:51.624Z,14.18
2019-02-04T09:21:55.499Z,12.53
2019-02-04T09:23:59.715Z,10.45
2019-02-04T09:26:03.970Z,14.13
2019-02-04T09:28:08.165Z,15.05
2019-02-04T09:30:17.504Z,13.18
2019-02-04T09:32:21.622Z,12.85
2019-02-04T09:34:25.836Z,12.75
2019-02-04T09:36:29.669Z,13.62
2019-02-04T09:38:35.039Z,13.68
2019-02-04T09:40:41.575Z,14.07
2019-02-04T09:42:45.766Z,11.12
2019-02-04T09:44:49.978Z,12.13
2019-02-04T09:46:54.063Z,15.00
2019-02-04T09:48:58.177Z,12.93
2019-02-04T09:51:02.390Z,10.43
2019-02-04T09:53:06.343Z,14.03
2019-02-04T09:55:13.232Z,11.57
2019-02-04T09:57:17.891Z,10.78
2019-02-04T09:59:21.720Z,12.13
2019-02-04T10:01:25.918Z,10.65
2019-02-04T10:03:30.118Z,11.65
2019-02-04T10:05:34.233Z,10.32
2019-02-04T10:07:38.755Z,16.60
2019-02-04T10:09:42.961Z,15.10
2019-02-04T10:11:48.316Z,13.75
2019-02-04T10:13:52.423Z,10.75
2019-02-04T10:15:58.201Z,12.03
2019-02-04T10:18:02.088Z,10.25
2019-02-04T10:20:09.386Z,11.30
2019-02-04T10:22:13.579Z,10.95
2019-02-04T10:24:17.812Z,12.85
2019-02-04T10:26:21.595Z,7.75
2019-02-04T10:28:25.799Z,10.60
2019-02-04T10:30:30.367Z,10.98
2019-02-04T10:32:34.198Z,10.82
2019-02-04T10:34:38.329Z,11.10
2019-02-04T10:36:42.533Z,10.98
2019-02-04T10:38:46.653Z,11.15
2019-02-04T10:40:51.096Z,12.50
2019-02-04T10:42:55.046Z,11.68
2019-02-04T10:44:59.229Z,13.00
2019-02-04T10:47:03.045Z,11.55
2019-02-04T10:49:06.853Z,9.73
2019-02-04T10:51:11.459Z,10.30
2019-02-04T10:53:15.634Z,10.80
2019-02-04T10:55:19.844Z,10.53
2019-02-04T10:57:23.702Z,9.28
2019-02-04T10:59:27.870Z,9.60
2019-02-04T11:01:32.590Z,9.78
2019-02-04T11:03:36.809Z,10.50
2019-02-04T11:05:45.070Z,7.95
2019-02-04T11:07:48.904Z,10.50
2019-02-04T11:09:53.162Z,8.03
2019-02-04T11:11:57.321Z,8.98
2019-02-04T11:14:01.610Z,10.75
2019-02-04T11:16:06.287Z,9.65
2019-02-04T11:18:10.991Z,10.88
2019-02-04T11:20:23.549Z,13.95
2019-02-04T11:22:27.364Z,10.03
2019-02-04T11:24:31.177Z,12.33
2019-02-04T11:26:35.372Z,10.63
2019-02-04T11:28:39.539Z,10.58
2019-02-04T11:30:46.409Z,9.88
2019-02-04T11:32:51.060Z,9.75
2019-02-04T11:34:55.155Z,8.40
2019-02-04T11:36:59.701Z,8.90
2019-02-04T11:39:05.896Z,9.63
2019-02-04T11:41:10.102Z,10.38
2019-02-04T11:43:14.344Z,10.32
2019-02-04T11:45:18.668Z,10.90
2019-02-04T11:47:23.112Z,11.88
2019-02-04T11:49:27.293Z,10.50
2019-02-04T11:51:31.419Z,11.18
2019-02-04T11:53:35.519Z,9.68
2019-02-04T11:55:39.715Z,9.70
2019-02-04T11:57:46.449Z,10.10
2019-02-04T11:59:50.299Z,9.28
2019-02-04T12:01:54.628Z,9.80
2019-02-04T12:03:58.817Z,9.70
2019-02-04T12:06:02.962Z,10.03
2019-02-04T12:08:07.253Z,8.90
2019-02-04T12:10:14.426Z,9.03
2019-02-04T12:12:18.648Z,8.80
2019-02-04T12:14:22.484Z,9.43
2019-02-04T12:16:26.308Z,7.78
2019-02-04T12:18:30.573Z,7.42
2019-02-04T12:20:34.396Z,7.55
2019-02-04T12:22:38.285Z,7.37
2019-02-04T12:24:42.107Z,6.58
2019-02-04T12:26:45.924Z,7.05
2019-02-04T12:28:50.094Z,6.60
2019-02-04T12:30:54.296Z,7.08
2019-02-04T12:32:59.137Z,6.47
2019-02-04T12:35:03.014Z,6.20
2019-02-04T12:37:07.304Z,6.47
2019-02-04T12:39:12.950Z,6.62
2019-02-04T12:41:17.306Z,6.85
2019-02-04T12:43:21.481Z,6.62
2019-02-04T12:45:28.538Z,7.05
2019-02-04T12:47:32.722Z,6.12
2019-02-04T12:49:36.832Z,5.90
2019-02-04T12:51:40.781Z,5.58
2019-02-04T12:53:44.608Z,5.80
2019-02-04T12:55:48.774Z,6.20
2019-02-04T12:57:53.880Z,5.80
2019-02-04T12:59:58.087Z,5.17
2019-02-04T13:02:02.201Z,5.22
2019-02-04T13:04:06.756Z,4.22
2019-02-04T13:06:11.247Z,4.50
2019-02-04T13:08:15.784Z,3.90
2019-02-04T13:10:20.416Z,4.33
2019-02-04T13:12:24.607Z,4.08
2019-02-04T13:14:28.424Z,3.77
2019-02-04T13:16:32.214Z,4.08
2019-02-04T13:18:36.058Z,4.22
2019-02-04T13:20:40.219Z,4.30
2019-02-04T13:22:44.340Z,4.40
2019-02-04T13:24:47.872Z,4.70
2019-02-04T13:26:51.726Z,4.03
2019-02-04T13:28:55.534Z,4.50
2019-02-04T13:30:59.754Z,3.47
2019-02-04T13:33:04.162Z,3.25
2019-02-04T13:35:13.808Z,3.30
2019-02-04T13:37:17.928Z,3.70
2019-02-04T13:39:22.030Z,3.58
2019-02-04T13:41:26.133Z,3.08
2019-02-04T13:43:29.973Z,2.92
2019-02-04T13:45:34.755Z,2.27
2019-02-04T13:47:38.866Z,2.35
2019-02-04T13:49:42.980Z,2.37
2019-02-04T13:51:57.080Z,2.33
2019-02-04T13:53:52.633Z,2.25
2019-02-04T13:55:56.484Z,2.20
2019-02-04T13:58:00.354Z,2.50
2019-02-04T14:00:09.890Z,3.35
2019-02-04T14:02:13.993Z,4.00
2019-02-04T14:04:18.101Z,3.33
2019-02-04T14:06:21.921Z,2.50
2019-02-04T14:08:26.122Z,2.50
2019-02-04T14:10:32.831Z,3.30
2019-02-04T14:12:36.632Z,2.15
2019-02-04T14:14:40.486Z,2.60
2019-02-04T14:16:44.704Z,2.72
2019-02-04T14:18:48.515Z,2.67
2019-02-04T14:20:52.674Z,2.55
2019-02-04T14:22:56.950Z,2.70
2019-02-04T14:25:00.779Z,2.40
2019-02-04T14:27:04.666Z,2.95
2019-02-04T14:29:08.581Z,2.20
2019-02-04T14:31:12.877Z,2.58
2019-02-04T14:33:16.767Z,2.62
2019-02-04T14:35:20.878Z,2.40
2019-02-04T14:37:24.726Z,2.83
2019-02-04T14:39:28.907Z,2.40
2019-02-04T14:41:33.528Z,2.85
2019-02-04T14:43:37.837Z,2.40
2019-02-04T14:46:10.708Z,2.75
2019-02-04T14:48:46.115Z,2.55
2019-02-04T14:51:10.888Z,2.95
2019-02-04T14:53:21.017Z,2.77
2019-02-04T14:55:35.961Z,2.55
2019-02-04T14:57:48.387Z,2.40
2019-02-04T14:59:55.423Z,2.60
2019-02-04T15:02:20.669Z,2.67
2019-02-04T15:04:33.591Z,2.45
2019-02-04T15:06:46.332Z,2.87
2019-02-04T15:09:11.252Z,2.58
2019-02-04T15:11:24.706Z,2.60
2019-02-04T15:13:52.903Z,2.60
2019-02-04T15:16:03.067Z,2.25
2019-02-04T15:18:13.113Z,2.12
2019-02-04T15:20:23.225Z,2.70
2019-02-04T15:22:36.506Z,2.25
2019-02-04T15:24:57.691Z,2.42
2019-02-04T15:27:21.340Z,2.75
2019-02-04T15:29:28.656Z,2.77
2019-02-04T15:31:35.925Z,2.52
2019-02-04T15:33:48.862Z,2.37
2019-02-04T15:36:04.718Z,2.65
2019-02-04T15:38:26.676Z,2.90
2019-02-04T15:40:33.529Z,2.60
2019-02-04T15:42:55.554Z,3.12
2019-02-04T15:45:02.419Z,2.67
2019-02-04T15:47:15.452Z,3.02
2019-02-04T15:49:31.149Z,2.20
2019-02-04T15:51:38.331Z,3.30
2019-02-04T15:53:42.590Z,3.72
2019-02-04T15:55:46.739Z,4.03
2019-02-04T15:57:50.556Z,3.45
2019-02-04T15:59:54.661Z,3.42
2019-02-04T16:01:58.567Z,3.42
2019-02-04T16:04:05.759Z,4.17
2019-02-04T16:06:09.549Z,4.33
2019-02-04T16:08:13.796Z,3.85
2019-02-04T16:10:18.124Z,4.60
2019-02-04T16:12:22.527Z,4.45
2019-02-04T16:14:26.319Z,4.90
2019-02-04T16:16:30.517Z,4.45
2019-02-04T16:18:34.836Z,4.00
2019-02-04T16:20:38.847Z,3.60
2019-02-04T16:22:42.963Z,3.15
2019-02-04T16:24:47.157Z,3.55
2019-02-04T16:26:51.273Z,3.98
2019-02-04T16:28:55.260Z,3.87
2019-02-04T16:30:59.121Z,4.10
2019-02-04T16:33:03.282Z,4.10
2019-02-04T16:35:10.073Z,4.58
2019-02-04T16:37:14.381Z,4.47
2019-02-04T16:39:18.489Z,4.20
2019-02-04T16:41:22.469Z,4.37
2019-02-04T16:43:26.710Z,4.45
2019-02-04T16:45:30.857Z,4.12
2019-02-04T16:47:34.938Z,7.53
2019-02-04T16:49:42.039Z,6.12
2019-02-04T16:51:46.022Z,5.33
2019-02-04T16:53:51.462Z,4.87
2019-02-04T16:55:55.563Z,4.80
2019-02-04T16:57:59.585Z,4.60
2019-02-04T17:00:07.785Z,4.87
2019-02-04T17:02:11.878Z,4.83
2019-02-04T17:04:15.698Z,5.20
2019-02-04T17:06:19.535Z,4.62
2019-02-04T17:08:23.814Z,4.65
2019-02-04T17:10:28.332Z,4.80
2019-02-04T17:12:32.538Z,5.05
2019-02-04T17:14:36.646Z,4.83
2019-02-04T17:16:40.869Z,4.83
2019-02-04T17:18:44.988Z,5.15
2019-02-04T17:20:49.198Z,4.03
2019-02-04T17:22:53.402Z,4.92
2019-02-04T17:24:57.237Z,4.83
2019-02-04T17:27:01.418Z,5.10
2019-02-04T17:29:05.931Z,4.87
2019-02-04T17:31:10.277Z,5.00
2019-02-04T17:33:14.053Z,4.58
2019-02-04T17:35:18.399Z,5.47
2019-02-04T17:37:22.199Z,5.00
2019-02-04T17:39:26.391Z,5.28
2019-02-04T17:41:30.870Z,4.97
2019-02-04T17:43:36.664Z,5.45
2019-02-04T17:45:40.485Z,5.33
2019-02-04T17:47:45.595Z,4.95
2019-02-04T17:49:49.414Z,3.87
2019-02-04T17:51:53.652Z,4.75
2019-02-04T17:53:57.461Z,4.55
2019-02-04T17:56:02.297Z,5.12
2019-02-04T17:58:09.088Z,5.72
2019-02-04T18:00:20.088Z,5.40
2019-02-04T18:02:23.966Z,5.05
2019-02-04T18:04:28.197Z,5.00
2019-02-04T18:06:32.379Z,5.80
2019-02-04T18:08:38.061Z,5.33
2019-02-04T18:10:42.275Z,5.62
2019-02-04T18:12:46.236Z,5.35
2019-02-04T18:14:50.404Z,5.00
2019-02-04T18:16:54.306Z,5.60
2019-02-04T18:18:58.477Z,4.58
2019-02-04T18:21:02.730Z,5.10
2019-02-04T18:23:06.918Z,5.12
2019-02-04T18:25:16.517Z,5.25
2019-02-04T18:27:20.571Z,4.15
2019-02-04T18:29:24.670Z,4.25
2019-02-04T18:31:28.894Z,4.87
2019-02-04T18:33:32.988Z,4.87
2019-02-04T18:35:37.154Z,4.72
2019-02-04T18:37:41.546Z,4.40
2019-02-04T18:39:45.644Z,4.25
2019-02-04T18:41:49.890Z,5.05
2019-02-04T18:43:54.067Z,4.45
2019-02-04T18:45:57.959Z,4.35
2019-02-04T18:48:02.506Z,4.10
2019-02-04T18:50:09.984Z,4.50
2019-02-04T18:52:14.134Z,4.30
2019-02-04T18:54:21.404Z,4.50
2019-02-04T18:56:25.510Z,3.83
2019-02-04T18:58:29.332Z,4.85
2019-02-04T19:00:34.266Z,4.22
2019-02-04T19:02:38.468Z,3.50
2019-02-04T19:04:42.658Z,4.42
2019-02-04T19:06:48.067Z,4.17
2019-02-04T19:08:52.028Z,4.50
2019-02-04T19:10:55.902Z,4.33
2019-02-04T19:13:00.324Z,4.40
2019-02-04T19:15:06.860Z,4.15
2019-02-04T19:17:12.214Z,4.50
2019-02-04T19:19:16.348Z,3.70
2019-02-04T19:21:20.554Z,4.30
2019-02-04T19:23:26.935Z,3.65
2019-02-04T19:25:30.620Z,3.85
2019-02-04T19:27:34.439Z,4.08
2019-02-04T19:29:41.004Z,3.75
2019-02-04T19:31:46.658Z,4.12
2019-02-04T19:33:50.857Z,3.83
2019-02-04T19:35:55.063Z,5.53
2019-02-04T19:38:00.515Z,3.70
2019-02-04T19:40:07.188Z,3.90
2019-02-04T19:42:11.016Z,4.10
2019-02-04T19:44:14.835Z,3.40
2019-02-04T19:46:19.401Z,4.53
2019-02-04T19:48:23.497Z,4.85
2019-02-04T19:50:32.718Z,3.90
2019-02-04T19:52:36.532Z,4.10
2019-02-04T19:54:40.748Z,4.15
2019-02-04T19:56:44.857Z,4.00
2019-02-04T19:58:49.071Z,3.87
2019-02-04T20:00:53.282Z,4.70
2019-02-04T20:02:57.491Z,4.17
2019-02-04T20:05:03.956Z,4.15
2019-02-04T20:07:07.885Z,4.28
2019-02-04T20:09:12.696Z,4.30
2019-02-04T20:11:16.914Z,3.95
2019-02-04T20:13:20.737Z,4.58
2019-02-04T20:15:34.735Z,4.05
2019-02-04T20:17:39.043Z,3.92
2019-02-04T20:19:43.188Z,4.55
2019-02-04T20:21:47.031Z,5.53
2019-02-04T20:23:50.850Z,5.45
2019-02-04T20:25:55.010Z,4.90
2019-02-04T20:27:59.992Z,5.85
2019-02-04T20:30:05.770Z,5.92
2019-02-04T20:32:09.887Z,6.20
2019-02-04T20:34:13.992Z,4.97
2019-02-04T20:36:18.251Z,5.72
2019-02-04T20:38:22.427Z,5.08
2019-02-04T20:40:27.404Z,5.60
2019-02-04T20:42:31.565Z,4.17
2019-02-04T20:44:35.424Z,5.45
2019-02-04T20:46:39.584Z,6.05
2019-02-04T20:48:43.498Z,6.43
2019-02-04T20:50:49.852Z,6.70
2019-02-04T20:52:53.724Z,6.08
2019-02-04T20:54:57.878Z,5.87
2019-02-04T20:57:02.587Z,5.50
2019-02-04T20:59:06.707Z,5.67
2019-02-04T21:01:10.818Z,5.63
2019-02-04T21:03:15.017Z,5.03
2019-02-04T21:05:18.968Z,5.78
2019-02-04T21:07:23.135Z,6.45
2019-02-04T21:09:27.261Z,5.67
2019-02-04T21:11:31.158Z,6.53
2019-02-04T21:13:36.251Z,5.87
2019-02-04T21:15:40.315Z,5.83
2019-02-04T21:17:44.412Z,4.97
2019-02-04T21:19:48.222Z,6.30
2019-02-04T21:21:52.061Z,5.78
2019-02-04T21:23:56.234Z,7.25
2019-02-04T21:26:00.050Z,6.10
2019-02-04T21:28:04.565Z,5.83
2019-02-04T21:30:17.681Z,5.83
2019-02-04T21:32:21.887Z,6.53
2019-02-04T21:34:25.721Z,6.55
2019-02-04T21:36:29.897Z,5.95
2019-02-04T21:38:33.733Z,6.62
2019-02-04T21:40:37.921Z,5.90
2019-02-04T21:42:41.806Z,7.40
2019-02-04T21:44:45.633Z,5.72
2019-02-04T21:46:49.452Z,6.37
2019-02-04T21:48:53.263Z,6.10
2019-02-04T21:50:57.377Z,6.78
2019-02-04T21:53:01.562Z,6.33
2019-02-04T21:55:08.878Z,6.92
2019-02-04T21:57:13.056Z,6.15
2019-02-04T21:59:17.169Z,6.15
2019-02-04T22:01:21.004Z,7.15
2019-02-04T22:03:25.173Z,6.60
2019-02-04T22:05:31.415Z,7.58
2019-02-04T22:07:35.237Z,6.15
2019-02-04T22:09:39.354Z,7.10
2019-02-04T22:11:43.471Z,6.97
2019-02-04T22:13:48.074Z,6.20
2019-02-04T22:15:52.301Z,6.42
2019-02-04T22:17:56.605Z,6.50
2019-02-04T22:20:00.725Z,6.00
2019-02-04T22:22:05.536Z,6.72
2019-02-04T22:24:09.666Z,6.20
2019-02-04T22:26:13.515Z,6.20
2019-02-04T22:28:17.673Z,6.75
2019-02-04T22:30:26.936Z,6.37
2019-02-04T22:32:30.798Z,6.55
2019-02-04T22:34:36.970Z,6.58
2019-02-04T22:36:40.793Z,7.12
2019-02-04T22:38:44.921Z,7.30
2019-02-04T22:40:49.097Z,6.92
2019-02-04T22:42:53.528Z,8.38
2019-02-04T22:44:58.023Z,7.70
2019-02-04T22:47:01.838Z,8.28
2019-02-04T22:49:06.357Z,7.28
2019-02-04T22:51:10.553Z,7.83
2019-02-04T22:53:14.675Z,8.10
2019-02-04T22:55:31.578Z,7.30
2019-02-04T22:57:27.429Z,7.22
2019-02-04T22:59:31.615Z,6.97
2019-02-04T23:01:38.791Z,9.68
2019-02-04T23:03:43.011Z,8.80
2019-02-04T23:05:47.324Z,8.83
2019-02-04T23:07:51.151Z,9.83
2019-02-04T23:09:55.330Z,10.18
2019-02-04T23:11:59.541Z,10.10
2019-02-04T23:14:03.959Z,11.08
2019-02-04T23:16:08.783Z,8.50
2019-02-04T23:18:12.669Z,7.50
2019-02-04T23:20:17.519Z,8.00
2019-02-04T23:22:21.719Z,8.13
2019-02-04T23:24:25.842Z,8.35
2019-02-04T23:26:29.959Z,8.35
2019-02-04T23:28:34.085Z,8.88
2019-02-04T23:30:38.272Z,7.92
2019-02-04T23:32:42.707Z,8.93
2019-02-04T23:34:46.801Z,8.78
2019-02-04T23:36:50.912Z,9.20
2019-02-04T23:38:55.143Z,9.03
2019-02-04T23:40:58.966Z,10.53
2019-02-04T23:43:05.088Z,10.88
2019-02-04T23:45:10.662Z,9.23
2019-02-04T23:47:14.761Z,9.33
2019-02-04T23:49:21.594Z,8.80
2019-02-04T23:51:25.750Z,8.58
2019-02-04T23:53:29.737Z,8.98
2019-02-04T23:55:34.255Z,10.45
2019-02-04T23:57:38.585Z,9.93
2019-02-04T23:59:42.788Z,10.10
